Time;durP1;ratioP1;P1;durP2;ratioP2;P2;SDS_P1;SDS_P2;PMS_P1;PMS_P2;Temp;Humidity;BMP_temperature;BMP_pressure;BME280_temperature;BME280_humidity;BME280_pressure;Samples;Min_cycle;Max_cycle;Signal;HPM_P1;HPM_P2
2023/07/08 00:02:04;;;;;;;2.42;1.30;;;19.30;80.80;;;;;;4976031;28;20126;-84
2023/07/08 00:04:30;;;;;;;2.05;1.20;;;19.40;80.80;;;;;;4963049;28;20039;-83
2023/07/08 00:06:55;;;;;;;1.80;1.20;;;19.40;80.70;;;;;;4956319;29;20023;-82
2023/07/08 00:09:21;;;;;;;2.25;1.40;;;19.30;80.70;;;;;;4964053;28;20019;-82
2023/07/08 00:11:46;;;;;;;2.20;1.30;;;19.30;80.60;;;;;;4976061;28;20158;-83
2023/07/08 00:14:11;;;;;;;2.33;1.55;;;19.30;80.70;;;;;;4964279;28;20043;-82
2023/07/08 00:16:38;;;;;;;2.28;1.30;;;19.30;80.80;;;;;;4994732;28;20034;-83
2023/07/08 00:19:09;;;;;;;2.20;1.20;;;19.30;80.90;;;;;;4981259;28;20027;-83
2023/07/08 00:21:34;;;;;;;2.17;1.17;;;19.30;81.00;;;;;;4976971;28;20106;-83
2023/07/08 00:24:01;;;;;;;2.47;1.50;;;19.20;81.00;;;;;;4965621;28;20062;-82
2023/07/08 00:26:29;;;;;;;2.97;1.40;;;19.30;81.10;;;;;;4977365;28;20576;-83
2023/07/08 00:28:55;;;;;;;1.95;1.20;;;19.30;81.10;;;;;;4987275;28;20041;-82
2023/07/08 00:31:23;;;;;;;2.03;1.13;;;19.30;81.10;;;;;;4981410;28;20030;-81
2023/07/08 00:33:49;;;;;;;1.80;1.17;;;19.20;81.10;;;;;;4984324;28;20038;-82
2023/07/08 00:36:17;;;;;;;2.15;1.33;;;19.20;81.10;;;;;;4995808;28;20073;-83
2023/07/08 00:38:45;;;;;;;2.33;1.30;;;19.20;81.20;;;;;;4981809;28;20054;-84
2023/07/08 00:41:32;;;;;;;1.90;1.13;;;19.20;81.20;;;;;;4982305;28;20026;-82
2023/07/08 00:43:59;;;;;;;2.95;1.33;;;19.20;81.30;;;;;;4976247;28;20497;-83
2023/07/08 00:46:29;;;;;;;2.08;1.30;;;19.20;81.50;;;;;;4958603;28;20055;-82
2023/07/08 00:49:31;;;;;;;2.47;1.38;;;19.20;81.30;;;;;;4955546;28;20051;-82
2023/07/08 00:52:15;;;;;;;2.17;1.20;;;19.20;81.30;;;;;;4929884;28;20035;-82
2023/07/08 00:54:40;;;;;;;1.95;1.20;;;19.20;81.40;;;;;;4961754;28;20081;-82
2023/07/08 00:57:06;;;;;;;2.30;1.40;;;19.20;81.30;;;;;;4979780;28;20286;-82
2023/07/08 01:00:03;;;;;;;1.42;1.13;;;19.20;81.40;;;;;;4974928;28;20037;-81
2023/07/08 01:02:31;;;;;;;1.83;1.20;;;19.20;81.40;;;;;;4984446;28;21197;-83
2023/07/08 01:05:06;;;;;;;2.08;1.30;;;19.20;81.40;;;;;;4973476;28;20420;-81
2023/07/08 01:07:33;;;;;;;2.22;1.40;;;19.20;81.50;;;;;;4970323;28;20029;-82
2023/07/08 01:10:04;;;;;;;2.35;1.30;;;19.20;81.40;;;;;;4952538;29;20424;-82
2023/07/08 01:12:34;;;;;;;2.88;1.60;;;19.20;81.40;;;;;;4989491;28;20026;-82
2023/07/08 01:15:02;;;;;;;1.90;1.33;;;19.20;81.50;;;;;;4977862;28;20030;-82
2023/07/08 01:17:32;;;;;;;2.40;1.30;;;19.20;81.40;;;;;;4988548;28;20037;-83
2023/07/08 01:19:59;;;;;;;2.25;1.20;;;19.20;81.40;;;;;;4971702;28;20037;-82
2023/07/08 01:22:24;;;;;;;2.53;1.30;;;19.20;81.40;;;;;;4972656;28;20031;-82
2023/07/08 01:24:50;;;;;;;1.63;1.20;;;19.20;81.30;;;;;;4983931;28;20038;-81
2023/07/08 01:27:19;;;;;;;1.80;1.10;;;19.30;81.20;;;;;;4984654;28;20030;-81
2023/07/08 01:29:46;;;;;;;2.17;1.38;;;19.30;81.30;;;;;;4958442;28;20043;-81
2023/07/08 01:32:17;;;;;;;2.05;1.40;;;19.30;81.20;;;;;;4953169;28;20055;-82
2023/07/08 01:34:49;;;;;;;2.45;1.50;;;19.30;81.20;;;;;;4964252;28;20025;-83
2023/07/08 01:37:15;;;;;;;2.72;1.50;;;19.30;81.10;;;;;;4989533;28;20134;-82
2023/07/08 01:39:40;;;;;;;2.25;1.33;;;19.30;81.10;;;;;;4990015;28;20454;-80
2023/07/08 01:42:06;;;;;;;1.95;1.20;;;19.30;81.50;;;;;;4989687;28;20026;-82
2023/07/08 01:44:34;;;;;;;2.17;1.35;;;19.30;81.00;;;;;;4960994;28;20035;-81
2023/07/08 01:47:07;;;;;;;1.98;1.20;;;19.30;81.00;;;;;;4952281;28;20055;-82
2023/07/08 01:49:35;;;;;;;2.03;1.30;;;19.30;81.00;;;;;;4970771;28;20062;-81
2023/07/08 01:52:02;;;;;;;2.45;1.30;;;19.30;81.10;;;;;;4990944;28;20610;-82
2023/07/08 01:54:27;;;;;;;2.28;1.40;;;19.30;81.20;;;;;;4979605;28;20038;-82
2023/07/08 01:56:57;;;;;;;2.97;1.20;;;19.30;81.30;;;;;;4959601;28;20027;-82
2023/07/08 01:59:22;;;;;;;3.03;1.60;;;19.20;81.30;;;;;;4981698;28;20027;-83
2023/07/08 02:01:49;;;;;;;2.17;1.40;;;19.20;81.30;;;;;;4989393;28;20373;-80
2023/07/08 02:04:15;;;;;;;2.72;1.40;;;19.20;81.40;;;;;;4964536;28;20031;-82
2023/07/08 02:06:42;;;;;;;2.28;1.33;;;19.20;81.40;;;;;;4950050;29;20549;-80
2023/07/08 02:09:07;;;;;;;2.35;1.40;;;19.20;81.40;;;;;;4961960;28;20392;-82
2023/07/08 02:11:33;;;;;;;1.73;1.20;;;19.20;81.40;;;;;;4988023;28;20033;-81
2023/07/08 02:14:00;;;;;;;1.98;1.25;;;19.20;81.40;;;;;;4971755;28;20123;-82
2023/07/08 02:16:25;;;;;;;2.78;1.35;;;19.20;81.50;;;;;;4976918;28;20063;-82
2023/07/08 02:18:51;;;;;;;2.50;1.50;;;19.20;81.50;;;;;;4977620;28;20026;-81
2023/07/08 02:21:17;;;;;;;1.83;1.20;;;19.20;81.50;;;;;;4990088;28;20041;-81
2023/07/08 02:23:44;;;;;;;2.28;1.33;;;19.20;81.50;;;;;;4972237;28;20469;-81
2023/07/08 02:26:10;;;;;;;2.08;1.23;;;19.20;81.60;;;;;;4951319;28;20031;-81
2023/07/08 02:28:35;;;;;;;3.80;1.70;;;19.20;81.60;;;;;;4957759;28;20105;-82
2023/07/08 02:31:04;;;;;;;2.00;1.25;;;19.20;81.60;;;;;;4949486;29;20035;-81
2023/07/08 02:33:32;;;;;;;2.92;1.38;;;19.20;81.60;;;;;;4950612;28;20035;-80
2023/07/08 02:35:59;;;;;;;2.83;1.60;;;19.20;81.70;;;;;;4950965;28;20027;-82
2023/07/08 02:38:25;;;;;;;2.42;1.30;;;19.10;81.60;;;;;;4955266;28;20042;-81
2023/07/08 02:40:50;;;;;;;2.28;1.40;;;19.20;81.70;;;;;;4989725;28;20038;-81
2023/07/08 02:43:16;;;;;;;1.60;1.17;;;19.20;81.70;;;;;;4978953;28;20449;-81
2023/07/08 02:45:41;;;;;;;2.42;1.20;;;19.20;81.70;;;;;;4950664;29;20059;-82
2023/07/08 02:48:07;;;;;;;2.28;1.50;;;19.20;81.70;;;;;;4949497;29;20035;-80
2023/07/08 02:50:32;;;;;;;3.00;1.40;;;19.20;81.80;;;;;;4987560;28;20085;-81
2023/07/08 02:52:58;;;;;;;1.95;1.27;;;19.20;81.70;;;;;;4977679;28;20035;-80
2023/07/08 02:55:23;;;;;;;2.72;1.30;;;19.20;81.60;;;;;;4953239;28;20043;-81
2023/07/08 02:57:49;;;;;;;2.30;1.20;;;19.20;81.70;;;;;;4989389;28;20037;-81
2023/07/08 03:00:15;;;;;;;2.55;1.30;;;19.20;81.70;;;;;;4988058;28;20064;-81
2023/07/08 03:02:40;;;;;;;2.67;1.48;;;19.20;81.70;;;;;;4989667;28;20026;-82
2023/07/08 03:05:06;;;;;;;2.83;1.50;;;19.20;81.50;;;;;;4950420;28;20114;-82
2023/07/08 03:07:32;;;;;;;2.08;1.40;;;19.30;81.60;;;;;;4958148;28;20074;-81
2023/07/08 03:09:57;;;;;;;2.28;1.40;;;19.30;81.50;;;;;;4974587;28;20056;-80
2023/07/08 06:40:41;;;;;;;3.10;1.60;;;19.40;81.00;;;;;;5112090;27;20330;-84
2023/07/08 06:47:07;;;;;;;3.20;1.80;;;19.40;81.30;;;;;;4953324;28;20114;-83
2023/07/08 06:49:33;;;;;;;;;;;19.50;81.20;;;;;;5016007;28;20041;-85
2023/07/08 06:52:02;;;;;;;2.30;1.40;;;19.50;81.00;;;;;;5029836;28;20400;-82
2023/07/08 06:54:27;;;;;;;2.22;1.50;;;19.50;81.00;;;;;;5029860;28;20117;-81
2023/07/08 06:56:53;;;;;;;2.75;1.40;;;18.60;80.50;;;;;;5028685;28;20426;-80
2023/07/08 06:59:19;;;;;;;2.40;1.50;;;19.00;80.60;;;;;;5037721;28;20033;-80
2023/07/08 07:01:44;;;;;;;2.58;1.67;;;20.70;81.40;;;;;;5038079;28;20075;-80
2023/07/08 07:04:10;;;;;;;2.00;1.40;;;19.70;80.80;;;;;;5031306;28;20556;-79
2023/07/08 07:06:35;;;;;;;3.58;1.75;;;19.70;80.80;;;;;;5037419;28;20053;-80
2023/07/08 07:09:01;;;;;;;2.17;1.42;;;20.20;81.20;;;;;;5036241;28;20034;-81
2023/07/08 07:11:34;;;;;;;2.40;1.58;;;19.70;80.90;;;;;;5035120;28;20037;-79
2023/07/08 07:46:10;;;;;;;2.13;1.37;;;19.90;80.00;;;;;;6194925;22;1187064;-83
2023/07/08 07:48:36;;;;;;;2.13;1.40;;;19.90;80.10;;;;;;6181239;23;20005;-83
2023/07/08 07:51:02;;;;;;;2.80;1.60;;;19.90;80.00;;;;;;6204109;23;19996;-82
2023/07/08 07:53:28;;;;;;;1.77;1.27;;;20.00;79.90;;;;;;6204718;23;20012;-82
2023/07/08 07:55:58;;;;;;;2.67;1.52;;;20.00;79.80;;;;;;6203885;23;20439;-83
2023/07/08 07:58:23;;;;;;;3.00;1.70;;;20.00;79.80;;;;;;6199960;23;20001;-82
2023/07/08 08:00:49;;;;;;;2.50;1.50;;;20.00;79.70;;;;;;6200633;23;20325;-82
2023/07/08 08:03:16;;;;;;;2.80;1.50;;;20.00;79.60;;;;;;6198920;23;19997;-82
2023/07/08 08:05:42;;;;;;;2.80;1.60;;;20.00;79.60;;;;;;6204431;23;20004;-82
2023/07/08 08:08:08;;;;;;;2.55;1.40;;;20.00;79.60;;;;;;6207285;23;20566;-84
2023/07/08 08:10:35;;;;;;;3.55;1.77;;;20.00;79.50;;;;;;6207348;23;20035;-85
2023/07/08 08:13:00;;;;;;;3.22;1.63;;;20.10;79.50;;;;;;6209179;23;20035;-85
2023/07/08 08:15:26;;;;;;;2.25;1.40;;;20.10;79.40;;;;;;6207460;23;20008;-82
2023/07/08 08:17:51;;;;;;;2.85;1.42;;;20.10;79.50;;;;;;6201172;23;20244;-86
2023/07/08 08:20:18;;;;;;;2.42;1.60;;;20.20;79.40;;;;;;6202672;23;20005;-86
2023/07/08 08:22:45;;;;;;;2.58;1.60;;;20.20;79.40;;;;;;6199245;23;20004;-82
2023/07/08 08:25:10;;;;;;;2.28;1.38;;;20.20;79.20;;;;;;6196274;23;20084;-83
2023/07/08 08:27:36;;;;;;;3.35;1.77;;;20.20;79.20;;;;;;6187112;23;20339;-83
2023/07/08 08:30:02;;;;;;;3.33;1.50;;;20.20;79.20;;;;;;6187781;23;20001;-83
2023/07/08 08:32:27;;;;;;;2.72;1.40;;;20.20;79.00;;;;;;6187386;23;20039;-82
2023/07/08 08:34:52;;;;;;;5.00;1.80;;;20.20;79.00;;;;;;6188938;23;20005;-81
2023/07/08 08:37:18;;;;;;;3.05;1.67;;;20.20;79.00;;;;;;6189426;23;20001;-81
2023/07/08 08:39:44;;;;;;;3.03;1.83;;;20.20;79.10;;;;;;6187807;23;20383;-82
2023/07/08 08:42:32;;;;;;;3.13;1.70;;;20.20;79.30;;;;;;6187790;23;20005;-81
2023/07/08 08:45:00;;;;;;;4.35;1.60;;;20.20;79.30;;;;;;6186929;23;20005;-82
2023/07/08 08:47:37;;;;;;;3.78;1.75;;;20.20;79.40;;;;;;6191816;23;20013;-83
2023/07/08 08:50:15;;;;;;;3.20;1.60;;;20.20;79.50;;;;;;6192956;23;20108;-83
2023/07/08 08:52:42;;;;;;;5.10;1.83;;;20.20;79.50;;;;;;6192340;23;20001;-83
2023/07/08 08:55:12;;;;;;;2.78;1.42;;;20.10;79.50;;;;;;6192646;23;20350;-82
2023/07/08 08:57:45;;;;;;;5.67;2.00;;;20.20;79.60;;;;;;6192800;23;20386;-82
2023/07/08 09:00:14;;;;;;;11.60;2.30;;;20.20;79.40;;;;;;6192309;23;20012;-82
2023/07/08 09:02:56;;;;;;;7.38;2.22;;;20.20;79.30;;;;;;6192186;23;20457;-82
2023/07/08 09:05:22;;;;;;;8.95;2.40;;;20.30;79.20;;;;;;6223980;23;20011;-82
2023/07/08 09:08:20;;;;;;;10.20;2.60;;;20.30;79.20;;;;;;6191604;23;20449;-82
2023/07/08 09:10:53;;;;;;;11.02;2.55;;;20.30;79.00;;;;;;6219239;23;20032;-80
2023/07/08 09:13:25;;;;;;;10.57;2.40;;;20.30;79.10;;;;;;6192499;23;20004;-81
2023/07/08 09:16:25;;;;;;;10.32;2.30;;;20.30;79.70;;;;;;6192002;23;20005;-80
2023/07/08 09:19:06;;;;;;;10.13;2.53;;;20.30;79.20;;;;;;6190972;23;20055;-80
2023/07/08 09:22:23;;;;;;;7.53;2.20;;;20.30;79.30;;;;;;6190993;23;20005;-80
2023/07/08 09:24:56;;;;;;;9.10;2.35;;;20.30;79.30;;;;;;6110492;23;20012;-81
2023/07/08 09:27:22;;;;;;;7.90;2.05;;;20.30;79.30;;;;;;6190687;23;20083;-82
2023/07/08 09:29:47;;;;;;;5.22;2.13;;;20.40;79.40;;;;;;6191270;23;20005;-81
2023/07/08 09:32:21;;;;;;;5.43;2.08;;;20.40;79.30;;;;;;6192100;23;20008;-82
2023/07/08 09:34:51;;;;;;;6.30;1.90;;;20.40;79.40;;;;;;6216854;23;20004;-80
2023/07/08 09:37:29;;;;;;;5.22;2.00;;;20.40;79.30;;;;;;6217614;23;20008;-80
2023/07/08 09:39:57;;;;;;;4.82;1.92;;;20.40;79.30;;;;;;6191391;23;20000;-81
2023/07/08 09:42:31;;;;;;;6.13;1.73;;;20.50;79.30;;;;;;6191438;23;20005;-81
2023/07/08 09:45:01;;;;;;;6.20;2.30;;;20.50;79.10;;;;;;6191386;23;20026;-81
2023/07/08 09:47:32;;;;;;;5.70;2.17;;;20.50;79.00;;;;;;6190471;23;20021;-80
2023/07/08 09:49:58;;;;;;;;;;;20.50;78.90;;;;;;6196625;23;20011;-80
2023/07/08 09:52:24;;;;;;;5.07;2.22;;;20.60;78.70;;;;;;6198915;23;19900;-80
2023/07/08 09:54:49;;;;;;;4.85;2.00;;;20.60;78.90;;;;;;6194897;23;20007;-81
2023/07/08 09:57:26;;;;;;;4.75;2.00;;;20.60;78.70;;;;;;6220663;23;20005;-81
2023/07/08 10:00:02;;;;;;;5.00;2.13;;;20.60;78.60;;;;;;6194679;23;20447;-79
2023/07/08 10:02:44;;;;;;;4.60;2.05;;;20.70;78.70;;;;;;6221686;23;19997;-80
2023/07/08 10:05:31;;;;;;;5.40;2.00;;;20.60;78.60;;;;;;6195505;23;20011;-81
2023/07/08 10:07:58;;;;;;;4.05;2.08;;;20.70;78.60;;;;;;6218683;23;20008;-80
2023/07/08 10:10:31;;;;;;;7.57;2.40;;;20.60;78.60;;;;;;6194700;23;20072;-81
2023/07/08 10:13:04;;;;;;;5.30;1.90;;;20.70;78.80;;;;;;6225790;23;20004;-78
2023/07/08 10:15:36;;;;;;;6.32;2.05;;;20.60;78.80;;;;;;6190989;23;20466;-80
2023/07/08 10:18:02;;;;;;;5.55;1.60;;;20.60;78.90;;;;;;6188609;23;20035;-82
2023/07/08 10:20:45;;;;;;;5.28;1.77;;;20.60;79.00;;;;;;6215350;23;19996;-81
2023/07/08 10:23:46;;;;;;;4.63;2.33;;;20.60;79.00;;;;;;6188833;23;20461;-81
2023/07/08 10:26:25;;;;;;;6.05;2.15;;;20.60;79.10;;;;;;6132115;23;20001;-80
2023/07/08 10:29:09;;;;;;;5.60;2.30;;;20.60;79.10;;;;;;6188531;23;20003;-81
2023/07/08 10:32:15;;;;;;;6.88;2.22;;;20.60;79.10;;;;;;6215206;23;19996;-82
2023/07/08 10:35:12;;;;;;;9.07;2.75;;;20.60;79.10;;;;;;6040664;23;20002;-81
2023/07/08 10:37:57;;;;;;;7.53;2.30;;;20.60;79.10;;;;;;6192233;23;20001;-83
2023/07/08 10:40:43;;;;;;;5.22;2.28;;;20.60;79.20;;;;;;6219464;23;20001;-83
2023/07/08 10:43:30;;;;;;;5.60;2.28;;;20.60;79.20;;;;;;6193428;23;20497;-83
2023/07/08 10:46:15;;;;;;;6.53;2.47;;;20.60;79.30;;;;;;6191563;23;20013;-82
2023/07/08 10:49:11;;;;;;;5.25;2.10;;;20.60;79.30;;;;;;6218807;23;20047;-83
2023/07/08 10:52:00;;;;;;;6.20;2.13;;;20.60;79.30;;;;;;6191973;23;20001;-82
2023/07/08 10:54:56;;;;;;;4.93;2.20;;;20.60;79.30;;;;;;6218148;23;20000;-82
2023/07/08 10:57:37;;;;;;;4.38;2.28;;;20.60;79.30;;;;;;6192163;23;20019;-83
2023/07/08 11:00:32;;;;;;;5.57;2.35;;;20.60;79.40;;;;;;6219531;23;20005;-83
2023/07/08 11:03:27;;;;;;;4.00;2.17;;;20.60;79.40;;;;;;6192083;23;20008;-82
2023/07/08 11:06:01;;;;;;;4.90;2.10;;;20.60;79.40;;;;;;6192006;23;20015;-83
2023/07/08 11:08:55;;;;;;;4.60;2.10;;;20.60;79.40;;;;;;6192349;23;20451;-82
2023/07/08 11:11:38;;;;;;;3.53;2.08;;;20.60;79.40;;;;;;6214034;23;20028;-81
2023/07/08 11:14:13;;;;;;;5.38;2.17;;;20.60;79.40;;;;;;6192509;23;20001;-82
2023/07/08 11:16:50;;;;;;;4.53;2.28;;;20.60;79.40;;;;;;6218996;23;20449;-82
2023/07/08 11:19:32;;;;;;;4.53;2.10;;;20.60;79.40;;;;;;6225871;23;20339;-82
2023/07/08 11:22:03;;;;;;;4.90;2.30;;;20.60;79.30;;;;;;6218588;23;20023;-81
2023/07/08 11:24:34;;;;;;;3.85;2.00;;;20.70;79.30;;;;;;6193404;23;20004;-81
2023/07/08 11:27:05;;;;;;;3.42;2.10;;;20.70;79.70;;;;;;6191420;23;20208;-81
2023/07/08 11:29:53;;;;;;;3.92;1.90;;;20.70;79.20;;;;;;6191432;23;20009;-80
2023/07/08 11:32:22;;;;;;;3.72;2.10;;;20.70;79.10;;;;;;6190870;23;20019;-80
2023/07/08 11:34:51;;;;;;;3.28;1.80;;;20.70;79.20;;;;;;6191566;23;20001;-80
2023/07/08 11:37:18;;;;;;;5.63;2.10;;;20.70;79.20;;;;;;6217133;23;20001;-79
2023/07/08 11:39:46;;;;;;;4.43;2.10;;;20.70;79.20;;;;;;6190669;23;20001;-80
2023/07/08 11:42:25;;;;;;;3.75;1.80;;;20.70;79.20;;;;;;6191496;23;20016;-80
2023/07/08 11:45:00;;;;;;;4.22;1.83;;;20.70;79.20;;;;;;6190639;23;20012;-80
2023/07/08 11:47:36;;;;;;;4.82;2.25;;;20.70;79.30;;;;;;6189828;23;20150;-81
2023/07/08 11:50:02;;;;;;;3.47;2.00;;;20.70;79.40;;;;;;6190644;23;20004;-81
2023/07/08 11:52:29;;;;;;;4.57;2.25;;;20.60;79.40;;;;;;6217361;23;20000;-80
2023/07/08 11:55:02;;;;;;;3.78;1.95;;;20.60;79.50;;;;;;6217260;23;20013;-80
2023/07/08 11:57:36;;;;;;;3.70;2.00;;;20.60;79.50;;;;;;6216419;23;20020;-81
2023/07/08 12:00:18;;;;;;;3.38;1.90;;;20.50;79.50;;;;;;6190219;23;19996;-80
2023/07/08 12:02:55;;;;;;;4.93;1.98;;;20.60;79.60;;;;;;6190894;23;20000;-81
2023/07/08 12:05:36;;;;;;;4.07;2.10;;;20.50;79.70;;;;;;6190441;23;20040;-80
2023/07/08 12:08:03;;;;;;;3.78;2.00;;;20.60;79.80;;;;;;6218583;23;20363;-81
2023/07/08 12:10:41;;;;;;;4.85;1.88;;;20.50;79.80;;;;;;6218517;23;20004;-83
2023/07/08 12:13:15;;;;;;;4.00;1.98;;;20.50;79.80;;;;;;6218529;23;20004;-81
2023/07/08 12:15:41;;;;;;;3.90;1.88;;;20.50;79.80;;;;;;6190138;23;20000;-81
2023/07/08 12:18:23;;;;;;;3.60;1.95;;;20.50;79.90;;;;;;6191313;23;20001;-82
2023/07/08 12:20:56;;;;;;;3.65;1.90;;;20.50;79.90;;;;;;6190346;23;20009;-81
2023/07/08 12:23:24;;;;;;;3.85;1.90;;;20.50;80.00;;;;;;6191351;23;20143;-82
2023/07/08 12:25:51;;;;;;;5.03;2.13;;;20.50;80.00;;;;;;6189721;23;20145;-81
2023/07/08 12:28:17;;;;;;;3.50;2.05;;;20.50;80.10;;;;;;6217099;23;20378;-81
2023/07/08 12:30:44;;;;;;;4.13;2.10;;;20.40;80.00;;;;;;6190642;23;20443;-82
2023/07/08 12:33:17;;;;;;;4.22;2.08;;;20.50;80.10;;;;;;6190451;23;20343;-82
2023/07/08 12:35:45;;;;;;;3.42;2.03;;;20.50;80.10;;;;;;6216764;23;20066;-82
2023/07/08 12:38:23;;;;;;;4.15;2.30;;;20.40;80.10;;;;;;6190768;23;20000;-82
2023/07/08 12:40:50;;;;;;;4.53;2.15;;;20.40;80.10;;;;;;6190908;23;20080;-82
2023/07/08 12:43:17;;;;;;;3.63;1.90;;;20.40;80.20;;;;;;6192640;23;20000;-80
2023/07/08 12:45:43;;;;;;;3.67;2.08;;;20.40;80.10;;;;;;6190992;23;20100;-81
2023/07/08 12:48:09;;;;;;;4.60;2.30;;;20.40;80.00;;;;;;6191240;23;20008;-82
2023/07/08 12:50:34;;;;;;;5.18;2.50;;;20.50;79.00;;;;;;6216900;23;20005;-81
2023/07/08 12:53:04;;;;;;;4.15;1.95;;;20.50;79.10;;;;;;6217045;23;20004;-80
2023/07/08 12:55:30;;;;;;;4.20;2.10;;;20.50;79.60;;;;;;6216750;23;20001;-81
2023/07/08 12:57:55;;;;;;;4.72;2.30;;;20.50;79.60;;;;;;6189557;23;20004;-80
2023/07/08 13:00:25;;;;;;;3.58;2.05;;;20.50;79.50;;;;;;6216159;23;19997;-80
2023/07/08 13:03:22;;;;;;;4.43;2.25;;;20.50;79.40;;;;;;6216526;23;20447;-81
2023/07/08 13:05:50;;;;;;;4.13;2.10;;;20.60;79.40;;;;;;6189151;23;20008;-80
2023/07/08 13:08:19;;;;;;;5.03;2.30;;;20.50;79.40;;;;;;6189537;23;20426;-81
2023/07/08 13:10:45;;;;;;;3.65;2.13;;;20.50;79.40;;;;;;6189789;23;20324;-81
2023/07/08 13:13:19;;;;;;;4.00;2.38;;;20.60;79.40;;;;;;6216415;23;20015;-81
2023/07/08 13:15:45;;;;;;;4.15;2.00;;;20.60;79.50;;;;;;6215567;23;20005;-80
2023/07/08 13:18:20;;;;;;;3.95;2.17;;;20.50;79.50;;;;;;6215750;23;20079;-80
2023/07/08 13:20:55;;;;;;;4.97;2.25;;;20.50;79.70;;;;;;6189548;23;20343;-81
2023/07/08 13:23:22;;;;;;;4.10;2.40;;;20.50;79.80;;;;;;6189169;23;20054;-80
2023/07/08 13:25:50;;;;;;;4.40;2.20;;;20.40;79.80;;;;;;6188988;23;20039;-79
2023/07/08 13:28:30;;;;;;;5.20;2.30;;;20.40;79.90;;;;;;6215643;23;20012;-80
2023/07/08 13:31:01;;;;;;;4.03;2.30;;;20.40;80.00;;;;;;6189008;23;20059;-80
2023/07/08 13:33:31;;;;;;;4.70;2.15;;;20.40;80.00;;;;;;6190737;23;20607;-80
2023/07/08 13:35:58;;;;;;;3.63;2.30;;;20.40;80.10;;;;;;6188665;23;20063;-78
2023/07/08 13:38:27;;;;;;;5.25;2.10;;;20.40;80.10;;;;;;6189116;23;20005;-80
2023/07/08 13:40:58;;;;;;;4.22;2.20;;;20.40;80.10;;;;;;6189152;23;20005;-81
2023/07/08 13:43:30;;;;;;;3.45;2.03;;;20.40;80.20;;;;;;6189260;23;20008;-80
2023/07/08 13:45:56;;;;;;;3.50;1.95;;;20.30;80.10;;;;;;6190747;23;20036;-82
2023/07/08 13:48:27;;;;;;;4.25;2.10;;;20.40;80.20;;;;;;6194075;23;20030;-81
2023/07/08 13:51:01;;;;;;;4.40;2.10;;;20.30;80.20;;;;;;6220424;23;20001;-81
2023/07/08 13:53:42;;;;;;;3.92;2.13;;;20.30;80.30;;;;;;6192907;23;20004;-81
2023/07/08 13:56:14;;;;;;;3.60;2.03;;;20.30;80.30;;;;;;6192701;23;20012;-79
2023/07/08 13:59:00;;;;;;;3.75;2.10;;;20.30;80.30;;;;;;6193045;23;20001;-80
2023/07/08 14:01:27;;;;;;;3.95;2.00;;;20.30;80.40;;;;;;6192821;23;20320;-80
2023/07/08 14:03:54;;;;;;;3.80;2.20;;;20.30;80.40;;;;;;6192773;23;20485;-81
2023/07/08 14:06:26;;;;;;;4.10;2.17;;;20.30;80.40;;;;;;6218995;23;20054;-81
2023/07/08 14:08:56;;;;;;;4.80;2.40;;;20.30;80.40;;;;;;6220371;23;20094;-81
2023/07/08 14:11:21;;;;;;;3.45;2.08;;;20.30;80.40;;;;;;6220029;23;20005;-81
2023/07/08 14:13:47;;;;;;;4.47;2.33;;;20.30;80.50;;;;;;6220093;23;20068;-82
2023/07/08 14:16:29;;;;;;;3.58;2.00;;;20.30;80.50;;;;;;6192541;23;20043;-81
2023/07/08 14:19:00;;;;;;;3.75;2.25;;;20.30;80.50;;;;;;6192464;23;20000;-82
2023/07/08 14:21:25;;;;;;;4.22;2.03;;;20.30;80.50;;;;;;6192950;23;20001;-81
2023/07/08 14:23:51;;;;;;;4.00;2.00;;;20.30;80.40;;;;;;6218832;23;20090;-80
2023/07/08 14:26:17;;;;;;;3.58;2.20;;;20.30;80.40;;;;;;6217844;23;20320;-81
2023/07/08 14:28:43;;;;;;;3.60;2.20;;;20.40;80.40;;;;;;6192052;23;20351;-81
2023/07/08 14:31:14;;;;;;;4.50;2.00;;;20.30;80.20;;;;;;6218342;23;20083;-78
2023/07/08 14:33:40;;;;;;;3.75;2.13;;;20.40;80.10;;;;;;6191664;23;20015;-81
2023/07/08 14:36:10;;;;;;;3.97;1.98;;;20.40;80.10;;;;;;6191173;23;20001;-82
2023/07/08 14:38:36;;;;;;;4.63;2.30;;;20.40;80.10;;;;;;6191670;23;20443;-82
2023/07/08 14:41:02;;;;;;;4.03;2.20;;;20.40;80.00;;;;;;6191720;23;19996;-80
2023/07/08 14:43:29;;;;;;;4.13;2.17;;;20.40;80.00;;;;;;6191537;23;20004;-82
2023/07/08 14:45:56;;;;;;;3.38;2.10;;;20.40;80.00;;;;;;6191436;23;20004;-80
2023/07/08 14:48:23;;;;;;;4.32;2.47;;;20.40;80.00;;;;;;6191322;23;20016;-80
2023/07/08 14:50:49;;;;;;;4.60;2.50;;;20.40;80.10;;;;;;6191251;23;20026;-78
2023/07/08 14:53:16;;;;;;;4.10;2.20;;;20.40;80.10;;;;;;6190672;23;20035;-81
2023/07/08 14:55:43;;;;;;;3.25;2.00;;;20.40;80.20;;;;;;6189612;23;20672;-80
2023/07/08 14:58:18;;;;;;;3.97;2.10;;;20.30;80.30;;;;;;6189866;23;20427;-78
2023/07/08 15:00:43;;;;;;;4.38;2.40;;;20.30;80.30;;;;;;6190537;23;20435;-80
2023/07/08 15:03:10;;;;;;;3.88;2.13;;;20.30;80.50;;;;;;6190208;23;20001;-80
2023/07/08 15:05:35;;;;;;;4.28;2.20;;;20.30;80.60;;;;;;6189503;23;20032;-81
2023/07/08 15:08:01;;;;;;;4.60;2.25;;;20.30;80.60;;;;;;6189468;23;20315;-80
2023/07/08 15:10:28;;;;;;;4.13;2.20;;;20.30;80.70;;;;;;6216504;23;20028;-81
2023/07/08 15:12:55;;;;;;;3.80;2.20;;;20.30;80.70;;;;;;6189595;23;20107;-80
2023/07/08 15:15:27;;;;;;;4.32;2.38;;;20.30;80.70;;;;;;6216649;23;20032;-80
2023/07/08 15:17:52;;;;;;;4.00;2.10;;;20.30;80.70;;;;;;6215928;23;20609;-79
2023/07/08 15:20:18;;;;;;;3.92;2.30;;;20.30;80.80;;;;;;6216349;23;19997;-81
2023/07/08 15:22:45;;;;;;;3.28;2.00;;;20.30;80.80;;;;;;6187862;23;20482;-81
2023/07/08 15:25:13;;;;;;;3.92;2.33;;;20.30;80.80;;;;;;6189078;23;20142;-79
2023/07/08 15:27:42;;;;;;;4.03;2.03;;;20.30;80.80;;;;;;6214449;23;20085;-81
2023/07/08 15:30:16;;;;;;;4.07;2.13;;;20.20;80.80;;;;;;6188872;23;20009;-80
2023/07/08 15:32:42;;;;;;;3.55;2.20;;;20.30;80.80;;;;;;6188999;23;20036;-79
2023/07/08 15:35:13;;;;;;;4.22;2.30;;;20.30;80.90;;;;;;6189226;23;20008;-80
2023/07/08 15:37:38;;;;;;;4.23;2.30;;;20.30;80.80;;;;;;6216848;23;20447;-81
2023/07/08 15:40:08;;;;;;;3.80;2.17;;;20.30;80.90;;;;;;6191024;23;20027;-80
2023/07/08 15:42:35;;;;;;;4.60;2.30;;;20.20;80.80;;;;;;6190866;23;20039;-80
2023/07/08 15:45:09;;;;;;;4.35;2.45;;;20.20;80.80;;;;;;6191002;23;20078;-78
2023/07/08 15:47:34;;;;;;;4.68;2.38;;;20.20;80.90;;;;;;6216906;23;20051;-80
2023/07/08 15:50:00;;;;;;;3.88;2.13;;;20.20;80.90;;;;;;6190674;23;20679;-80
2023/07/08 15:52:25;;;;;;;3.80;2.13;;;20.20;80.90;;;;;;6191200;23;20004;-80
2023/07/08 15:54:51;;;;;;;4.00;2.30;;;20.20;80.90;;;;;;6190451;23;20008;-78
2023/07/08 15:57:16;;;;;;;3.17;2.00;;;20.20;80.90;;;;;;6216706;23;20000;-81
2023/07/08 15:59:42;;;;;;;3.90;2.20;;;20.30;80.90;;;;;;6190399;23;20000;-79
2023/07/08 16:02:26;;;;;;;3.67;2.20;;;20.30;80.80;;;;;;6216890;23;20016;-80
2023/07/08 16:04:52;;;;;;;4.60;2.22;;;20.30;80.70;;;;;;6190152;23;20008;-78
2023/07/08 16:07:17;;;;;;;4.65;2.30;;;20.30;80.60;;;;;;6216554;23;20084;-80
2023/07/08 16:09:43;;;;;;;4.82;2.60;;;20.30;80.60;;;;;;6217099;23;20075;-80
2023/07/08 16:12:16;;;;;;;4.25;2.40;;;20.40;80.50;;;;;;6216989;23;20007;-81
2023/07/08 16:14:41;;;;;;;3.70;2.00;;;20.30;80.40;;;;;;6190127;23;20000;-79
2023/07/08 16:17:10;;;;;;;4.32;2.33;;;20.40;80.40;;;;;;6215838;23;20004;-80
2023/07/08 16:19:36;;;;;;;3.55;2.00;;;20.40;80.50;;;;;;6189891;23;20509;-80
2023/07/08 16:22:02;;;;;;;3.47;2.10;;;20.40;80.40;;;;;;6216555;23;20000;-78
2023/07/08 16:24:28;;;;;;;4.22;2.00;;;20.40;80.50;;;;;;6189839;23;20446;-81
2023/07/08 16:26:55;;;;;;;4.32;2.30;;;20.30;80.50;;;;;;6216333;23;20004;-80
2023/07/08 16:29:21;;;;;;;3.83;2.22;;;20.30;80.50;;;;;;6216223;23;20081;-81
2023/07/08 16:31:47;;;;;;;3.80;2.15;;;20.30;80.60;;;;;;6189804;23;20088;-81
2023/07/08 16:34:13;;;;;;;4.32;2.35;;;20.30;80.70;;;;;;6189802;23;20008;-79
2023/07/08 16:36:40;;;;;;;3.47;2.00;;;20.30;80.80;;;;;;6189109;23;20015;-81
2023/07/08 16:39:06;;;;;;;4.03;2.08;;;20.30;80.90;;;;;;6216296;23;20001;-80
2023/07/08 16:41:37;;;;;;;3.25;1.83;;;20.30;81.00;;;;;;6189773;23;20478;-78
2023/07/08 16:44:11;;;;;;;3.97;2.17;;;20.30;81.00;;;;;;6189907;23;20005;-78
2023/07/08 16:46:37;;;;;;;3.97;2.17;;;20.30;81.10;;;;;;6215528;23;20039;-80
2023/07/08 16:49:02;;;;;;;3.85;2.10;;;20.30;81.10;;;;;;6189388;23;20012;-79
2023/07/08 16:51:28;;;;;;;4.10;2.13;;;20.20;81.10;;;;;;6189628;23;20423;-80
2023/07/08 16:54:16;;;;;;;3.83;2.03;;;20.20;81.10;;;;;;6189948;23;20011;-79
2023/07/08 16:56:43;;;;;;;4.30;2.22;;;20.30;81.20;;;;;;6193123;23;20130;-82
2023/07/08 16:59:14;;;;;;;4.00;2.05;;;20.20;81.10;;;;;;6193264;23;20435;-81
2023/07/08 17:01:39;;;;;;;3.92;2.25;;;20.20;81.20;;;;;;6193540;23;20032;-81
2023/07/08 17:04:07;;;;;;;4.45;2.20;;;20.20;81.10;;;;;;6193413;23;20000;-80
2023/07/08 17:06:32;;;;;;;3.88;2.10;;;20.10;81.10;;;;;;6192367;23;20012;-81
2023/07/08 17:08:58;;;;;;;3.72;2.22;;;20.20;81.20;;;;;;6193287;23;20005;-81
2023/07/08 17:11:24;;;;;;;3.80;2.08;;;20.20;81.20;;;;;;6192996;23;20004;-80